Time;durP1;ratioP1;P1;durP2;ratioP2;P2;SDS_P1;SDS_P2;PMS_P1;PMS_P2;Temp;Humidity;BMP_temperature;BMP_pressure;BME280_temperature;BME280_humidity;BME280_pressure;Samples;Min_cycle;Max_cycle;Signal;HPM_P1;HPM_P2
2021/09/05 00:00:08;;;;;;;7.70;5.70;;;;;;;;;;4967583;28;20440;-82
2021/09/05 00:02:33;;;;;;;6.90;5.90;;;;;;;;;;4994666;28;20202;-81
2021/09/05 00:04:58;;;;;;;8.80;6.40;;;;;;;;;;4994385;28;20646;-82
2021/09/05 00:07:23;;;;;;;10.10;6.93;;;;;;;;;;4974477;28;20205;-82
2021/09/05 00:09:49;;;;;;;11.20;7.23;;;;;;;;;;4997146;28;20190;-82
2021/09/05 00:12:14;;;;;;;10.63;7.00;;;;;;;;;;4996248;28;20208;-82
2021/09/05 00:14:39;;;;;;;7.57;6.40;;;;;;;;;;4991075;28;20732;-82
2021/09/05 00:17:04;;;;;;;9.10;7.10;;;;;;;;;;4993551;28;20212;-82
2021/09/05 00:19:30;;;;;;;8.97;6.53;;;;;;;;;;4992715;28;20534;-81
2021/09/05 00:21:55;;;;;;;7.73;6.43;;;;;;;;;;4993844;28;20660;-82
2021/09/05 00:24:20;;;;;;;8.67;7.10;;;;;;;;;;4992903;28;20232;-82
2021/09/05 00:26:48;;;;;;;8.97;6.30;;;;;;;;;;4993683;28;20189;-81
2021/09/05 00:29:14;;;;;;;7.87;6.60;;;;;;;;;;4986591;28;20190;-81
2021/09/05 00:31:40;;;;;;;10.20;6.57;;;;;;;;;;4979962;28;20472;-81
2021/09/05 00:34:05;;;;;;;7.23;6.13;;;;;;;;;;4992856;28;20240;-82
2021/09/05 00:36:30;;;;;;;7.67;6.33;;;;;;;;;;4978624;28;20655;-81
2021/09/05 00:38:55;;;;;;;8.20;6.60;;;;;;;;;;4979230;28;20259;-81
2021/09/05 00:41:20;;;;;;;10.50;7.23;;;;;;;;;;4996079;28;20284;-82
2021/09/05 00:44:03;;;;;;;9.43;7.10;;;;;;;;;;4997539;28;20220;-82
2021/09/05 00:46:32;;;;;;;8.27;7.33;;;;;;;;;;4994151;28;20592;-82
2021/09/05 00:48:57;;;;;;;10.67;8.83;;;;;;;;;;4995299;28;20909;-82
2021/09/05 00:51:26;;;;;;;12.73;8.93;;;;;;;;;;4996300;28;20477;-82
2021/09/05 00:53:52;;;;;;;11.93;8.60;;;;;;;;;;4978795;28;20189;-82
2021/09/05 00:56:17;;;;;;;11.53;8.73;;;;;;;;;;4979379;28;20435;-82
2021/09/05 00:58:44;;;;;;;11.13;8.67;;;;;;;;;;4992836;28;20229;-81
2021/09/05 01:01:10;;;;;;;9.60;8.23;;;;;;;;;;4994549;28;20178;-82
2021/09/05 01:03:35;;;;;;;11.13;8.67;;;;;;;;;;4993775;28;20452;-82
2021/09/05 01:06:00;;;;;;;12.60;9.67;;;;;;;;;;4996569;28;20260;-82
2021/09/05 01:08:25;;;;;;;12.63;9.70;;;;;;;;;;4990264;28;20272;-83
2021/09/05 01:10:51;;;;;;;12.33;8.80;;;;;;;;;;4994276;28;20177;-82
2021/09/05 01:13:16;;;;;;;12.03;9.70;;;;;;;;;;4987906;28;20216;-82
2021/09/05 01:15:41;;;;;;;12.80;9.70;;;;;;;;;;4990799;28;20181;-82
2021/09/05 01:18:07;;;;;;;12.80;9.67;;;;;;;;;;4980171;28;20184;-82
2021/09/05 01:20:32;;;;;;;13.53;10.00;;;;;;;;;;4996144;28;20185;-82
2021/09/05 01:22:57;;;;;;;14.00;10.60;;;;;;;;;;4976115;28;20200;-82
2021/09/05 01:25:22;;;;;;;12.10;9.30;;;;;;;;;;4988122;28;20201;-82
2021/09/05 01:27:48;;;;;;;12.33;9.30;;;;;;;;;;4997213;28;20220;-82
2021/09/05 01:30:15;;;;;;;12.67;9.53;;;;;;;;;;4978789;28;20196;-82
2021/09/05 01:32:41;;;;;;;14.63;9.90;;;;;;;;;;4997117;28;20573;-83
2021/09/05 01:35:06;;;;;;;10.10;8.50;;;;;;;;;;4989514;28;20456;-82
2021/09/05 01:37:31;;;;;;;12.60;9.77;;;;;;;;;;4974327;28;20722;-82
2021/09/05 01:39:57;;;;;;;12.37;9.57;;;;;;;;;;4994619;28;20232;-82
2021/09/05 01:42:22;;;;;;;12.20;9.00;;;;;;;;;;4991455;28;20643;-82
2021/09/05 01:44:47;;;;;;;11.47;10.00;;;;;;;;;;4990548;28;20229;-82
2021/09/05 01:47:13;;;;;;;11.90;9.73;;;;;;;;;;4993750;28;20846;-82
2021/09/05 01:49:38;;;;;;;9.70;8.70;;;;;;;;;;4996096;28;20215;-82
2021/09/05 01:52:03;;;;;;;13.00;10.10;;;;;;;;;;4977487;28;20589;-82
2021/09/05 01:54:29;;;;;;;13.53;10.10;;;;;;;;;;4978233;28;20209;-81
2021/09/05 01:56:54;;;;;;;12.60;10.23;;;;;;;;;;4993043;28;20194;-82
2021/09/05 01:59:19;;;;;;;12.67;10.03;;;;;;;;;;4981791;28;20810;-82
2021/09/05 02:01:44;;;;;;;13.23;10.57;;;;;;;;;;4995534;28;20830;-82
2021/09/05 02:04:10;;;;;;;12.53;9.60;;;;;;;;;;4993776;28;20204;-82
2021/09/05 02:06:35;;;;;;;10.53;9.43;;;;;;;;;;4992994;28;20323;-81
2021/09/05 02:09:00;;;;;;;12.70;10.30;;;;;;;;;;4991268;28;20567;-82
2021/09/05 02:11:25;;;;;;;10.57;9.17;;;;;;;;;;4980839;28;20285;-82
2021/09/05 02:13:51;;;;;;;11.27;9.27;;;;;;;;;;4976906;28;20205;-82
2021/09/05 02:16:16;;;;;;;13.43;10.03;;;;;;;;;;4994931;28;20189;-81
2021/09/05 02:18:42;;;;;;;12.97;9.30;;;;;;;;;;4993914;28;20213;-81
2021/09/05 02:21:07;;;;;;;13.67;10.30;;;;;;;;;;4978745;28;20199;-81
2021/09/05 02:23:33;;;;;;;13.57;10.40;;;;;;;;;;4993340;28;20237;-81
2021/09/05 02:25:58;;;;;;;11.00;9.10;;;;;;;;;;4990603;28;20831;-82
2021/09/05 02:28:23;;;;;;;12.70;10.10;;;;;;;;;;4995654;28;20181;-81
2021/09/05 02:30:48;;;;;;;12.13;9.17;;;;;;;;;;4995332;28;20192;-82
2021/09/05 02:33:14;;;;;;;14.83;10.67;;;;;;;;;;4992512;28;20210;-82
2021/09/05 02:35:39;;;;;;;13.93;10.20;;;;;;;;;;4989408;28;20207;-82
2021/09/05 02:38:04;;;;;;;16.23;11.17;;;;;;;;;;4996010;28;20181;-82
2021/09/05 02:40:30;;;;;;;13.67;9.90;;;;;;;;;;4980797;28;20793;-82
2021/09/05 02:42:55;;;;;;;13.50;11.30;;;;;;;;;;4996267;28;20193;-82
2021/09/05 02:45:20;;;;;;;15.30;10.90;;;;;;;;;;4980441;28;20356;-82
2021/09/05 02:47:45;;;;;;;14.90;10.97;;;;;;;;;;5005390;28;20178;-82
2021/09/05 02:50:11;;;;;;;13.50;10.27;;;;;;;;;;4989110;28;20186;-81
2021/09/05 02:52:36;;;;;;;17.23;11.70;;;;;;;;;;4999621;28;20213;-82
2021/09/05 02:55:02;;;;;;;13.07;10.13;;;;;;;;;;4985166;28;20215;-82
2021/09/05 02:57:27;;;;;;;13.63;10.97;;;;;;;;;;4988411;28;20185;-81
2021/09/05 02:59:54;;;;;;;13.47;11.33;;;;;;;;;;4998371;28;20203;-81
2021/09/05 03:02:20;;;;;;;13.53;11.13;;;;;;;;;;4974102;28;20232;-81
2021/09/05 03:04:45;;;;;;;14.73;10.60;;;;;;;;;;4985683;28;20451;-82
2021/09/05 03:07:10;;;;;;;15.70;11.17;;;;;;;;;;5003277;28;20208;-82
2021/09/05 03:09:35;;;;;;;13.17;11.47;;;;;;;;;;4998992;28;20209;-81
2021/09/05 03:12:01;;;;;;;13.37;11.63;;;;;;;;;;4982154;28;20221;-81
2021/09/05 03:14:26;;;;;;;13.83;11.43;;;;;;;;;;5002869;28;20209;-82
2021/09/05 03:16:51;;;;;;;15.27;11.80;;;;;;;;;;5003059;28;20564;-82
2021/09/05 03:19:17;;;;;;;13.83;11.30;;;;;;;;;;5000999;28;20193;-81
2021/09/05 03:21:42;;;;;;;14.43;11.33;;;;;;;;;;5002274;28;20196;-82
2021/09/05 03:24:07;;;;;;;15.13;12.40;;;;;;;;;;4999018;28;20220;-81
2021/09/05 03:26:33;;;;;;;12.60;11.20;;;;;;;;;;4996360;28;20577;-81
2021/09/05 03:28:58;;;;;;;12.47;10.30;;;;;;;;;;5000633;28;20752;-81
2021/09/05 03:31:24;;;;;;;12.13;9.53;;;;;;;;;;5021728;22;20490;-73
2021/09/05 03:33:49;;;;;;;10.60;9.50;;;;;;;;;;5021179;28;20214;-74
2021/09/05 03:36:14;;;;;;;12.80;9.60;;;;;;;;;;5021716;28;20546;-74
2021/09/05 03:38:39;;;;;;;14.43;10.13;;;;;;;;;;5021503;28;20263;-74
2021/09/05 03:41:05;;;;;;;12.00;9.70;;;;;;;;;;5016011;28;20188;-74
2021/09/05 03:43:30;;;;;;;11.50;8.87;;;;;;;;;;5020742;28;20739;-73
2021/09/05 03:45:55;;;;;;;9.80;8.80;;;;;;;;;;5022258;28;20173;-73
2021/09/05 03:48:21;;;;;;;13.20;9.67;;;;;;;;;;5018872;28;20208;-74
2021/09/05 03:50:46;;;;;;;15.30;9.67;;;;;;;;;;5019282;28;20575;-74
2021/09/05 03:53:11;;;;;;;11.90;9.10;;;;;;;;;;5021516;28;20274;-74
2021/09/05 03:55:37;;;;;;;15.17;9.83;;;;;;;;;;5017979;28;20181;-74
2021/09/05 03:58:02;;;;;;;12.57;8.77;;;;;;;;;;5015357;28;20185;-74
2021/09/05 04:00:28;;;;;;;11.97;8.60;;;;;;;;;;5016916;28;20200;-74
2021/09/05 04:02:53;;;;;;;10.57;9.33;;;;;;;;;;5017765;28;20181;-74
2021/09/05 04:05:18;;;;;;;12.30;9.43;;;;;;;;;;5016337;28;20183;-73
2021/09/05 04:07:59;;;;;;;11.70;8.50;;;;;;;;;;5017158;28;20172;-73
2021/09/05 04:10:25;;;;;;;10.10;8.40;;;;;;;;;;5016157;28;20352;-73
2021/09/05 04:12:50;;;;;;;10.37;8.33;;;;;;;;;;5016828;28;20859;-73
2021/09/05 04:15:15;;;;;;;9.27;8.13;;;;;;;;;;5017606;28;20201;-73
2021/09/05 04:17:40;;;;;;;11.70;8.67;;;;;;;;;;5018882;28;20207;-73
2021/09/05 04:20:06;;;;;;;11.70;9.13;;;;;;;;;;5018670;28;20177;-73
2021/09/05 04:22:32;;;;;;;10.37;8.53;;;;;;;;;;5015660;28;20177;-73
2021/09/05 04:24:58;;;;;;;12.43;8.90;;;;;;;;;;5015710;28;20187;-73
2021/09/05 04:27:23;;;;;;;10.97;8.73;;;;;;;;;;5015906;28;20430;-74
2021/09/05 04:29:48;;;;;;;11.10;8.93;;;;;;;;;;5017544;28;20204;-73
2021/09/05 04:32:13;;;;;;;9.30;7.83;;;;;;;;;;5012421;28;20591;-73
2021/09/05 04:34:39;;;;;;;9.03;8.13;;;;;;;;;;5014160;28;20169;-73
2021/09/05 04:37:04;;;;;;;9.40;8.27;;;;;;;;;;5018033;28;20184;-73
2021/09/05 04:39:29;;;;;;;8.27;7.47;;;;;;;;;;5014899;28;20191;-74
2021/09/05 04:41:57;;;;;;;6.77;6.00;;;;;;;;;;5016309;28;20200;-74
2021/09/05 04:44:22;;;;;;;7.00;6.40;;;;;;;;;;5016233;28;20656;-74
2021/09/05 04:46:47;;;;;;;6.83;6.23;;;;;;;;;;5015770;28;20432;-73
2021/09/05 04:49:12;;;;;;;6.97;6.37;;;;;;;;;;5016341;28;20177;-73
2021/09/05 04:51:38;;;;;;;6.03;5.53;;;;;;;;;;5017504;28;20209;-73
2021/09/05 04:54:06;;;;;;;6.73;6.13;;;;;;;;;;5018926;28;20315;-74
2021/09/05 04:56:31;;;;;;;7.37;6.70;;;;;;;;;;5013009;28;20185;-73
2021/09/05 04:58:56;;;;;;;7.77;7.07;;;;;;;;;;5017483;28;20431;-73
2021/09/05 05:01:22;;;;;;;7.13;6.53;;;;;;;;;;5015425;28;20658;-73
2021/09/05 05:03:47;;;;;;;7.13;6.53;;;;;;;;;;5016689;28;20618;-74
2021/09/05 05:06:12;;;;;;;6.90;6.33;;;;;;;;;;5010814;28;20236;-73
2021/09/05 05:08:37;;;;;;;6.67;6.17;;;;;;;;;;5018215;28;20177;-73
2021/09/05 05:11:03;;;;;;;8.00;7.30;;;;;;;;;;5020455;28;20259;-73
2021/09/05 05:13:28;;;;;;;7.70;7.03;;;;;;;;;;5014685;28;20208;-73
2021/09/05 05:15:56;;;;;;;7.93;7.23;;;;;;;;;;5008902;28;20203;-73
2021/09/05 05:18:22;;;;;;;8.17;7.47;;;;;;;;;;5016315;28;20212;-73
2021/09/05 05:20:47;;;;;;;7.33;6.73;;;;;;;;;;5015284;28;20455;-73
2021/09/05 05:23:12;;;;;;;8.40;7.70;;;;;;;;;;5020384;28;20435;-73
2021/09/05 05:25:38;;;;;;;8.57;7.80;;;;;;;;;;5011117;28;20177;-74
2021/09/05 05:28:03;;;;;;;8.77;7.97;;;;;;;;;;5018500;28;20195;-73
2021/09/05 05:30:28;;;;;;;9.43;8.60;;;;;;;;;;5016683;28;20307;-73
2021/09/05 05:32:55;;;;;;;11.00;9.90;;;;;;;;;;5017255;28;20200;-73
2021/09/05 05:35:21;;;;;;;10.73;9.57;;;;;;;;;;5013691;28;20650;-74
2021/09/05 05:37:46;;;;;;;10.80;9.70;;;;;;;;;;5017740;28;20431;-73
2021/09/05 05:40:11;;;;;;;12.03;10.90;;;;;;;;;;5019015;28;20185;-73
2021/09/05 05:42:36;;;;;;;10.93;9.90;;;;;;;;;;5011422;28;20227;-73
2021/09/05 05:45:02;;;;;;;11.57;10.30;;;;;;;;;;5012168;28;20243;-74
2021/09/05 05:47:28;;;;;;;12.10;10.80;;;;;;;;;;5014396;28;20203;-73
2021/09/05 05:49:53;;;;;;;12.10;10.97;;;;;;;;;;5012232;28;20199;-73
2021/09/05 05:52:19;;;;;;;11.93;10.50;;;;;;;;;;5012543;28;20472;-73
2021/09/05 05:54:44;;;;;;;12.90;11.60;;;;;;;;;;5012859;28;20857;-73
2021/09/05 05:57:09;;;;;;;13.17;10.97;;;;;;;;;;5016586;28;20195;-73
2021/09/05 05:59:35;;;;;;;13.07;11.70;;;;;;;;;;5019544;28;20320;-74
2021/09/05 06:02:00;;;;;;;11.33;10.13;;;;;;;;;;5022286;28;20658;-75
2021/09/05 06:04:25;;;;;;;12.10;10.90;;;;;;;;;;5022967;28;20238;-73
2021/09/05 06:06:53;;;;;;;12.73;10.57;;;;;;;;;;5022347;28;20548;-74
2021/09/05 06:09:18;;;;;;;13.03;11.73;;;;;;;;;;5022281;28;20185;-75
2021/09/05 06:11:43;;;;;;;11.77;10.60;;;;;;;;;;5026583;28;20471;-73
2021/09/05 06:14:08;;;;;;;12.50;11.20;;;;;;;;;;5024820;28;20195;-74
2021/09/05 06:16:34;;;;;;;12.60;10.27;;;;;;;;;;5024284;28;20176;-73
2021/09/05 06:19:01;;;;;;;13.10;11.80;;;;;;;;;;5022670;28;20271;-74
2021/09/05 06:21:27;;;;;;;12.97;11.47;;;;;;;;;;5024397;28;20192;-74
2021/09/05 06:23:52;;;;;;;14.30;12.30;;;;;;;;;;5023928;28;20423;-75
2021/09/05 06:26:17;;;;;;;14.23;12.27;;;;;;;;;;5024765;28;20176;-74
2021/09/05 06:28:43;;;;;;;12.57;11.23;;;;;;;;;;5026194;28;20640;-73
2021/09/05 06:31:08;;;;;;;13.27;11.40;;;;;;;;;;5019692;28;20208;-74
2021/09/05 06:33:33;;;;;;;16.90;12.33;;;;;;;;;;5024412;28;20204;-74
2021/09/05 06:35:58;;;;;;;15.00;11.93;;;;;;;;;;5019320;28;20196;-74
2021/09/05 06:38:23;;;;;;;15.93;12.80;;;;;;;;;;5022184;28;20183;-74
2021/09/05 06:40:49;;;;;;;12.80;11.10;;;;;;;;;;5024260;28;20630;-74
2021/09/05 06:43:14;;;;;;;16.90;12.60;;;;;;;;;;5022168;28;20603;-74
2021/09/05 06:45:40;;;;;;;18.03;13.70;;;;;;;;;;5017610;28;20702;-74
2021/09/05 06:48:05;;;;;;;15.43;12.53;;;;;;;;;;5023300;28;20184;-75
2021/09/05 06:50:30;;;;;;;17.50;13.47;;;;;;;;;;5019553;28;20217;-74
2021/09/05 06:52:56;;;;;;;15.73;12.80;;;;;;;;;;5023516;28;20196;-74
2021/09/05 06:55:21;;;;;;;18.90;13.90;;;;;;;;;;5018116;28;20429;-74
2021/09/05 06:57:47;;;;;;;17.80;14.00;;;;;;;;;;5017427;28;20220;-75
2021/09/05 07:00:13;;;;;;;15.00;12.60;;;;;;;;;;5020248;28;20212;-74
2021/09/05 07:02:38;;;;;;;14.30;12.63;;;;;;;;;;5021831;28;20431;-74
2021/09/05 07:05:04;;;;;;;19.43;13.97;;;;;;;;;;5017647;28;20562;-74
2021/09/05 07:07:29;;;;;;;20.50;14.20;;;;;;;;;;5020051;28;20280;-74
2021/09/05 07:09:54;;;;;;;18.27;14.10;;;;;;;;;;5018328;28;20469;-74
2021/09/05 07:12:19;;;;;;;19.83;14.10;;;;;;;;;;5018032;28;20736;-74
2021/09/05 07:14:45;;;;;;;18.17;14.63;;;;;;;;;;5016639;28;20520;-74
2021/09/05 07:17:10;;;;;;;17.30;13.57;;;;;;;;;;5013794;28;20192;-74
2021/09/05 07:19:35;;;;;;;20.70;15.27;;;;;;;;;;5018860;28;20192;-75
2021/09/05 07:22:00;;;;;;;15.70;13.10;;;;;;;;;;5010738;28;20211;-74
2021/09/05 07:24:28;;;;;;;20.30;14.27;;;;;;;;;;5009272;28;20266;-73
2021/09/05 07:26:53;;;;;;;15.63;13.30;;;;;;;;;;5015342;28;20193;-75
2021/09/05 07:29:19;;;;;;;16.57;13.30;;;;;;;;;;5020232;28;20451;-75
2021/09/05 07:31:47;;;;;;;18.53;14.53;;;;;;;;;;5018711;28;20204;-76
2021/09/05 07:34:13;;;;;;;21.13;15.70;;;;;;;;;;5020452;28;20256;-75
2021/09/05 07:36:38;;;;;;;18.90;14.60;;;;;;;;;;5016753;28;20515;-75
2021/09/05 07:39:03;;;;;;;20.70;14.33;;;;;;;;;;5016249;28;20573;-75
2021/09/05 07:41:29;;;;;;;22.37;14.87;;;;;;;;;;5019623;28;20667;-78
2021/09/05 07:43:54;;;;;;;15.30;12.63;;;;;;;;;;5018060;28;20177;-76
2021/09/05 07:46:19;;;;;;;15.20;13.10;;;;;;;;;;5018771;28;20748;-75
2021/09/05 07:48:45;;;;;;;16.37;13.93;;;;;;;;;;5021141;28;20173;-76
2021/09/05 07:51:10;;;;;;;20.03;14.10;;;;;;;;;;5020656;28;20661;-75
2021/09/05 07:53:35;;;;;;;18.20;12.73;;;;;;;;;;5020528;28;20203;-76
2021/09/05 07:56:01;;;;;;;14.13;12.43;;;;;;;;;;5020440;28;20168;-77
2021/09/05 07:58:27;;;;;;;16.73;12.93;;;;;;;;;;5018615;28;20184;-76
2021/09/05 08:00:53;;;;;;;16.63;11.20;;;;;;;;;;5018418;28;20201;-76
2021/09/05 08:03:18;;;;;;;16.30;12.67;;;;;;;;;;5019662;28;20430;-75
2021/09/05 08:05:43;;;;;;;15.17;11.27;;;;;;;;;;5020591;28;20177;-75
2021/09/05 08:08:08;;;;;;;14.80;11.47;;;;;;;;;;5018979;28;20184;-75
2021/09/05 08:10:34;;;;;;;16.27;11.90;;;;;;;;;;5021442;28;20197;-75
2021/09/05 08:12:59;;;;;;;13.57;11.87;;;;;;;;;;5011800;28;20220;-74
2021/09/05 08:15:26;;;;;;;16.70;12.47;;;;;;;;;;5012575;28;20268;-74
2021/09/05 08:17:51;;;;;;;13.90;11.17;;;;;;;;;;5019092;28;20207;-74
2021/09/05 08:20:16;;;;;;;13.70;11.47;;;;;;;;;;5016693;28;20951;-74
2021/09/05 08:22:41;;;;;;;14.23;11.13;;;;;;;;;;5013326;28;20573;-74
2021/09/05 08:25:07;;;;;;;18.20;12.47;;;;;;;;;;5011302;28;20199;-74
2021/09/05 08:27:32;;;;;;;18.43;13.03;;;;;;;;;;5014642;28;20323;-74
2021/09/05 08:29:57;;;;;;;16.00;11.43;;;;;;;;;;5013545;28;20173;-74
2021/09/05 08:32:23;;;;;;;15.80;11.57;;;;;;;;;;5013607;28;20211;-74
2021/09/05 08:34:48;;;;;;;18.00;11.80;;;;;;;;;;5011650;28;20189;-74
2021/09/05 08:37:13;;;;;;;14.77;11.43;;;;;;;;;;5013520;28;20185;-74
2021/09/05 08:39:39;;;;;;;15.23;11.03;;;;;;;;;;5010706;28;20172;-75
2021/09/05 08:42:04;;;;;;;12.90;10.90;;;;;;;;;;5015849;28;20215;-75
2021/09/05 08:44:30;;;;;;;11.40;9.90;;;;;;;;;;5013204;28;20208;-74
2021/09/05 08:46:55;;;;;;;12.23;9.90;;;;;;;;;;5011045;28;20180;-75
2021/09/05 08:49:28;;;;;;;15.00;10.93;;;;;;;;;;5030364;28;20192;-74
2021/09/05 08:51:54;;;;;;;12.03;9.90;;;;;;;;;;5017209;28;20201;-74
2021/09/05 08:54:19;;;;;;;10.23;9.23;;;;;;;;;;5018883;28;20450;-74
2021/09/05 08:56:47;;;;;;;12.40;10.27;;;;;;;;;;5010765;28;20188;-74
2021/09/05 08:59:12;;;;;;;14.00;10.60;;;;;;;;;;5014403;28;20196;-74
2021/09/05 09:01:37;;;;;;;11.50;9.23;;;;;;;;;;5014049;28;20450;-74
2021/09/05 09:04:04;;;;;;;11.30;8.70;;;;;;;;;;5013087;28;20656;-74
2021/09/05 09:06:35;;;;;;;13.23;8.30;;;;;;;;;;5012311;28;20576;-74
2021/09/05 09:09:03;;;;;;;11.80;9.67;;;;;;;;;;5015263;28;20527;-74
2021/09/05 09:11:45;;;;;;;12.43;8.80;;;;;;;;;;5015613;28;20459;-74
2021/09/05 09:14:11;;;;;;;12.80;9.37;;;;;;;;;;5014982;28;20531;-74
2021/09/05 09:16:36;;;;;;;11.33;8.60;;;;;;;;;;5009941;28;20438;-74
2021/09/05 09:19:01;;;;;;;10.87;8.60;;;;;;;;;;5015788;28;20223;-74
2021/09/05 09:21:26;;;;;;;13.87;9.97;;;;;;;;;;5010631;28;20210;-74
2021/09/05 09:23:52;;;;;;;10.70;8.80;;;;;;;;;;5009530;28;20243;-74
2021/09/05 09:26:17;;;;;;;12.00;9.13;;;;;;;;;;5006745;28;20188;-74
2021/09/05 09:28:46;;;;;;;12.80;10.10;;;;;;;;;;5019026;28;20964;-74
2021/09/05 09:31:25;;;;;;;10.70;8.57;;;;;;;;;;5015268;28;20299;-74
2021/09/05 09:33:54;;;;;;;10.43;8.93;;;;;;;;;;5016221;28;20449;-75
2021/09/05 09:36:23;;;;;;;11.50;8.60;;;;;;;;;;5012052;28;20420;-75
2021/09/05 09:39:05;;;;;;;12.37;9.30;;;;;;;;;;5017416;28;20908;-74
2021/09/05 09:41:31;;;;;;;10.80;8.93;;;;;;;;;;5014889;28;20512;-74
2021/09/05 09:43:58;;;;;;;10.07;7.67;;;;;;;;;;5017410;28;20435;-74
2021/09/05 09:46:30;;;;;;;16.23;9.30;;;;;;;;;;5013754;28;20522;-74
2021/09/05 09:48:56;;;;;;;11.97;8.27;;;;;;;;;;5013862;28;20439;-74
2021/09/05 09:51:22;;;;;;;15.10;8.77;;;;;;;;;;5015873;28;20545;-74
2021/09/05 09:53:48;;;;;;;13.00;8.50;;;;;;;;;;5014095;28;20578;-74
2021/09/05 09:56:16;;;;;;;9.10;7.13;;;;;;;;;;5015090;28;20484;-74
2021/09/05 09:58:42;;;;;;;9.47;7.83;;;;;;;;;;5010536;28;20684;-74
2021/09/05 10:01:08;;;;;;;14.63;7.07;;;;;;;;;;5013004;28;20450;-74
2021/09/05 10:03:34;;;;;;;9.23;6.73;;;;;;;;;;5016214;28;20447;-74
2021/09/05 10:06:03;;;;;;;12.10;8.30;;;;;;;;;;5011351;28;20215;-74
2021/09/05 10:08:33;;;;;;;9.27;7.40;;;;;;;;;;5016205;28;20547;-74
2021/09/05 10:10:59;;;;;;;9.77;7.70;;;;;;;;;;5014949;28;20458;-73
2021/09/05 10:13:31;;;;;;;9.80;8.37;;;;;;;;;;5013679;28;20470;-72
2021/09/05 10:15:57;;;;;;;8.97;7.67;;;;;;;;;;5014115;28;20181;-72
2021/09/05 10:18:22;;;;;;;8.97;6.80;;;;;;;;;;5016497;28;20850;-72
2021/09/05 10:20:48;;;;;;;8.27;6.47;;;;;;;;;;5016321;28;20208;-72
2021/09/05 10:23:15;;;;;;;10.00;6.93;;;;;;;;;;5016788;28;20185;-72
2021/09/05 10:25:51;;;;;;;10.93;6.20;;;;;;;;;;5013023;28;20192;-72
2021/09/05 10:28:30;;;;;;;8.60;5.97;;;;;;;;;;5014460;28;20443;-72
2021/09/05 10:30:59;;;;;;;6.37;5.30;;;;;;;;;;5013408;28;20531;-72
2021/09/05 10:33:35;;;;;;;7.40;6.30;;;;;;;;;;5012152;28;20462;-72
2021/09/05 10:36:04;;;;;;;7.40;6.00;;;;;;;;;;5017588;28;20425;-72
2021/09/05 10:38:31;;;;;;;7.30;6.30;;;;;;;;;;5020594;28;20419;-74
2021/09/05 10:40:57;;;;;;;8.97;7.30;;;;;;;;;;5014358;28;21026;-73
2021/09/05 10:43:23;;;;;;;8.30;6.00;;;;;;;;;;5015492;28;20815;-73
2021/09/05 10:45:58;;;;;;;8.40;6.17;;;;;;;;;;5012419;28;20455;-73
2021/09/05 10:48:34;;;;;;;7.90;5.67;;;;;;;;;;5015942;28;20500;-74
2021/09/05 10:51:13;;;;;;;8.40;6.70;;;;;;;;;;5021716;28;20459;-73
2021/09/05 10:53:58;;;;;;;8.37;5.57;;;;;;;;;;5016943;28;20976;-72
2021/09/05 10:56:24;;;;;;;7.23;5.87;;;;;;;;;;5013607;28;21022;-72
2021/09/05 10:58:49;;;;;;;6.80;5.87;;;;;;;;;;5018740;28;20525;-73
2021/09/05 11:01:17;;;;;;;7.47;6.40;;;;;;;;;;5021812;28;20205;-72
2021/09/05 11:04:01;;;;;;;6.43;5.47;;;;;;;;;;5021019;28;20184;-73
2021/09/05 11:06:33;;;;;;;10.73;6.00;;;;;;;;;;5025154;28;20439;-72
2021/09/05 11:09:17;;;;;;;5.77;4.93;;;;;;;;;;5015194;28;20417;-73
2021/09/05 11:12:11;;;;;;;6.47;5.40;;;;;;;;;;5018000;28;20469;-72
2021/09/05 11:14:46;;;;;;;6.23;5.50;;;;;;;;;;5016587;28;20498;-72
2021/09/05 11:17:11;;;;;;;5.90;4.43;;;;;;;;;;5012866;28;20426;-76
2021/09/05 11:19:42;;;;;;;6.10;5.03;;;;;;;;;;5014311;28;20473;-75
2021/09/05 11:22:07;;;;;;;5.50;4.67;;;;;;;;;;5021141;28;20208;-74
2021/09/05 11:24:32;;;;;;;5.10;4.10;;;;;;;;;;5023315;28;20433;-76
2021/09/05 11:27:01;;;;;;;5.50;4.57;;;;;;;;;;5024071;28;20177;-75
2021/09/05 11:29:27;;;;;;;5.53;4.10;;;;;;;;;;5024388;28;20208;-74
2021/09/05 11:31:58;;;;;;;6.17;4.20;;;;;;;;;;5024454;28;21295;-72
2021/09/05 11:34:24;;;;;;;5.73;4.43;;;;;;;;;;5024839;28;20419;-72
2021/09/05 11:36:49;;;;;;;7.97;4.37;;;;;;;;;;5023878;28;21257;-70
2021/09/05 11:39:14;;;;;;;4.97;3.77;;;;;;;;;;5025012;28;20203;-72
2021/09/05 11:41:41;;;;;;;4.40;4.00;;;;;;;;;;5022625;28;20263;-71
2021/09/05 11:44:06;;;;;;;5.80;4.20;;;;;;;;;;5024264;28;20185;-73
2021/09/05 11:46:31;;;;;;;7.87;4.40;;;;;;;;;;5025363;28;20438;-74
2021/09/05 11:48:57;;;;;;;5.10;3.60;;;;;;;;;;5025560;28;20173;-73
2021/09/05 11:51:23;;;;;;;4.43;3.67;;;;;;;;;;5039688;28;20290;-74
2021/09/05 11:54:05;;;;;;;4.40;3.97;;;;;;;;;;5023693;28;20557;-74
2021/09/05 11:56:30;;;;;;;5.00;3.13;;;;;;;;;;5020382;28;20181;-75
2021/09/05 11:59:04;;;;;;;5.00;3.53;;;;;;;;;;5023709;28;20426;-74
2021/09/05 12:01:29;;;;;;;4.70;3.57;;;;;;;;;;5023629;28;20212;-72
2021/09/05 12:03:55;;;;;;;3.23;2.93;;;;;;;;;;5024729;28;20774;-74
2021/09/05 12:06:20;;;;;;;5.33;3.33;;;;;;;;;;5022596;28;20173;-73
2021/09/05 12:08:47;;;;;;;3.63;3.33;;;;;;;;;;5022659;28;20239;-72
2021/09/05 12:11:12;;;;;;;4.40;3.17;;;;;;;;;;5023875;28;20759;-70
2021/09/05 12:13:48;;;;;;;4.30;3.17;;;;;;;;;;5021525;28;20550;-71
2021/09/05 12:16:20;;;;;;;5.10;3.50;;;;;;;;;;5013434;28;20208;-71
2021/09/05 12:18:57;;;;;;;5.27;3.20;;;;;;;;;;5020651;28;20434;-71
2021/09/05 12:21:33;;;;;;;3.50;3.00;;;;;;;;;;5018981;28;21041;-71
2021/09/05 12:23:58;;;;;;;3.43;2.60;;;;;;;;;;5022218;28;20415;-72
2021/09/05 12:26:24;;;;;;;3.13;2.50;;;;;;;;;;5016756;28;20441;-72
2021/09/05 12:28:59;;;;;;;3.40;2.57;;;;;;;;;;5021589;28;20169;-71
2021/09/05 12:31:38;;;;;;;4.57;3.20;;;;;;;;;;5018337;28;20236;-72
2021/09/05 12:34:03;;;;;;;3.73;2.67;;;;;;;;;;5017607;28;21001;-72
2021/09/05 12:36:28;;;;;;;2.47;2.27;;;;;;;;;;5016090;28;21103;-71
2021/09/05 12:38:55;;;;;;;4.43;2.53;;;;;;;;;;5017636;28;20183;-71
2021/09/05 12:41:22;;;;;;;3.17;2.97;;;;;;;;;;5024909;28;20197;-71
2021/09/05 12:43:54;;;;;;;2.70;2.30;;;;;;;;;;5015629;28;21073;-71
2021/09/05 12:46:21;;;;;;;2.53;1.70;;;;;;;;;;5013971;28;20450;-71
2021/09/05 12:48:48;;;;;;;2.90;2.07;;;;;;;;;;5015271;28;20462;-71
2021/09/05 12:51:17;;;;;;;1.97;1.77;;;;;;;;;;5020325;28;20455;-71
2021/09/05 12:53:52;;;;;;;2.00;1.87;;;;;;;;;;5019070;28;20474;-71
2021/09/05 12:56:17;;;;;;;2.20;1.83;;;;;;;;;;5022035;28;20457;-71
2021/09/05 12:58:42;;;;;;;4.43;1.90;;;;;;;;;;5018900;28;20412;-71
2021/09/05 13:01:07;;;;;;;2.23;2.00;;;;;;;;;;5016154;28;20201;-71
2021/09/05 13:03:34;;;;;;;1.90;1.70;;;;;;;;;;5018143;28;20188;-73
2021/09/05 13:05:59;;;;;;;1.97;1.77;;;;;;;;;;5019689;28;20181;-76
2021/09/05 13:08:24;;;;;;;2.03;1.90;;;;;;;;;;5019425;28;20423;-76
2021/09/05 13:10:49;;;;;;;2.53;2.10;;;;;;;;;;5021776;28;20292;-76
2021/09/05 13:13:15;;;;;;;3.30;2.10;;;;;;;;;;5020042;28;20238;-74
2021/09/05 13:15:40;;;;;;;2.50;2.00;;;;;;;;;;5020195;28;20569;-76
2021/09/05 13:18:05;;;;;;;2.30;2.10;;;;;;;;;;5012198;28;20185;-73
2021/09/05 13:20:30;;;;;;;2.23;2.03;;;;;;;;;;5012720;28;20239;-73
2021/09/05 13:22:56;;;;;;;2.30;2.10;;;;;;;;;;5018090;28;20188;-73
2021/09/05 13:25:22;;;;;;;3.50;2.00;;;;;;;;;;5017162;28;20567;-76
2021/09/05 13:27:47;;;;;;;2.00;1.70;;;;;;;;;;5016773;28;20555;-76
2021/09/05 13:30:12;;;;;;;1.80;1.70;;;;;;;;;;5012216;28;20208;-74
2021/09/05 13:32:38;;;;;;;2.47;2.27;;;;;;;;;;5016564;28;20204;-75
2021/09/05 13:35:03;;;;;;;2.10;1.90;;;;;;;;;;5018468;28;20699;-75
2021/09/05 13:37:29;;;;;;;3.43;2.37;;;;;;;;;;5020803;28;20196;-73
2021/09/05 13:39:54;;;;;;;2.40;2.20;;;;;;;;;;5016771;28;20173;-73
2021/09/05 13:42:19;;;;;;;2.27;2.00;;;;;;;;;;5017174;28;20188;-74
2021/09/05 13:44:45;;;;;;;2.13;2.00;;;;;;;;;;5019443;28;20180;-72
2021/09/05 13:47:10;;;;;;;3.10;2.80;;;;;;;;;;5017099;28;20199;-72
2021/09/05 13:49:35;;;;;;;1.87;1.77;;;;;;;;;;5019165;28;20565;-72
2021/09/05 13:52:00;;;;;;;4.03;2.10;;;;;;;;;;5018038;28;20208;-73
2021/09/05 13:54:26;;;;;;;2.03;1.93;;;;;;;;;;5017514;28;20180;-74
2021/09/05 13:56:51;;;;;;;4.33;2.63;;;;;;;;;;5021296;28;20255;-74
2021/09/05 13:59:16;;;;;;;6.10;2.97;;;;;;;;;;5014460;28;20219;-73
2021/09/05 14:01:41;;;;;;;2.87;2.10;;;;;;;;;;5015910;28;20277;-74
2021/09/05 14:04:07;;;;;;;3.33;2.73;;;;;;;;;;5016580;28;20227;-75
2021/09/05 14:06:32;;;;;;;3.10;2.50;;;;;;;;;;5019600;28;20712;-77
2021/09/05 14:08:57;;;;;;;2.77;2.10;;;;;;;;;;5020797;28;20195;-75
2021/09/05 14:11:23;;;;;;;4.27;2.50;;;;;;;;;;5017964;28;20247;-73
2021/09/05 14:13:48;;;;;;;2.73;2.00;;;;;;;;;;5016811;28;20208;-73
2021/09/05 14:16:13;;;;;;;3.13;2.17;;;;;;;;;;5018815;28;20176;-74
2021/09/05 14:18:38;;;;;;;2.40;2.07;;;;;;;;;;5013949;28;20260;-72
2021/09/05 14:21:05;;;;;;;2.23;2.03;;;;;;;;;;5009745;28;20798;-74
2021/09/05 14:23:30;;;;;;;2.53;1.87;;;;;;;;;;5010650;28;20181;-73
2021/09/05 14:25:56;;;;;;;4.23;2.20;;;;;;;;;;5016736;28;20435;-74